sensor_id;sensor_type;location;lat;lon;timestamp;P1;durP1;ratioP1;P2;durP2;ratioP2
51332;SDS011;37417;48.118;11.734;2023-05-20T00:01:00;2.70;;;1.42;;
51332;SDS011;37417;48.118;11.734;2023-05-20T00:03:45;1.63;;;1.25;;
51332;SDS011;37417;48.118;11.734;2023-05-20T00:06:31;1.60;;;1.17;;
51332;SDS011;37417;48.118;11.734;2023-05-20T00:09:17;1.38;;;1.27;;
51332;SDS011;37417;48.118;11.734;2023-05-20T00:12:03;1.48;;;1.13;;
51332;SDS011;37417;48.118;11.734;2023-05-20T00:14:49;1.65;;;1.55;;
51332;SDS011;37417;48.118;11.734;2023-05-20T00:17:35;1.70;;;1.35;;
51332;SDS011;37417;48.118;11.734;2023-05-20T00:20:20;1.38;;;1.10;;
51332;SDS011;37417;48.118;11.734;2023-05-20T00:23:06;1.88;;;1.77;;
51332;SDS011;37417;48.118;11.734;2023-05-20T00:25:52;0.70;;;0.70;;
51332;SDS011;37417;48.118;11.734;2023-05-20T00:28:38;2.58;;;2.17;;
51332;SDS011;37417;48.118;11.734;2023-05-20T00:31:23;1.73;;;1.63;;
51332;SDS011;37417;48.118;11.734;2023-05-20T00:34:09;2.83;;;1.77;;
51332;SDS011;37417;48.118;11.734;2023-05-20T00:36:54;2.80;;;1.20;;
51332;SDS011;37417;48.118;11.734;2023-05-20T00:39:40;3.30;;;1.27;;
51332;SDS011;37417;48.118;11.734;2023-05-20T00:42:26;1.25;;;1.15;;
51332;SDS011;37417;48.118;11.734;2023-05-20T00:45:13;1.48;;;1.17;;
51332;SDS011;37417;48.118;11.734;2023-05-20T00:47:58;1.58;;;1.48;;
51332;SDS011;37417;48.118;11.734;2023-05-20T00:50:47;6.43;;;2.42;;
51332;SDS011;37417;48.118;11.734;2023-05-20T00:53:33;1.90;;;1.80;;
51332;SDS011;37417;48.118;11.734;2023-05-20T00:56:20;2.42;;;1.85;;
51332;SDS011;37417;48.118;11.734;2023-05-20T00:59:07;1.30;;;1.20;;
51332;SDS011;37417;48.118;11.734;2023-05-20T01:01:53;2.22;;;1.75;;
51332;SDS011;37417;48.118;11.734;2023-05-20T01:04:40;3.00;;;1.23;;
51332;SDS011;37417;48.118;11.734;2023-05-20T01:07:31;1.52;;;1.38;;
51332;SDS011;37417;48.118;11.734;2023-05-20T01:10:17;1.42;;;1.33;;
51332;SDS011;37417;48.118;11.734;2023-05-20T01:13:03;2.63;;;1.73;;
51332;SDS011;37417;48.118;11.734;2023-05-20T01:15:52;2.10;;;1.60;;
51332;SDS011;37417;48.118;11.734;2023-05-20T01:18:40;1.83;;;1.63;;
51332;SDS011;37417;48.118;11.734;2023-05-20T01:21:28;1.88;;;1.77;;
51332;SDS011;37417;48.118;11.734;2023-05-20T01:24:14;2.03;;;1.83;;
51332;SDS011;37417;48.118;11.734;2023-05-20T01:27:00;1.85;;;1.60;;
51332;SDS011;37417;48.118;11.734;2023-05-20T01:29:46;2.08;;;1.88;;
51332;SDS011;37417;48.118;11.734;2023-05-20T01:32:36;2.92;;;1.73;;
51332;SDS011;37417;48.118;11.734;2023-05-20T01:35:25;2.13;;;1.70;;
51332;SDS011;37417;48.118;11.734;2023-05-20T01:38:11;1.58;;;1.25;;
51332;SDS011;37417;48.118;11.734;2023-05-20T01:40:59;1.48;;;1.38;;
51332;SDS011;37417;48.118;11.734;2023-05-20T01:43:48;3.83;;;1.70;;
51332;SDS011;37417;48.118;11.734;2023-05-20T01:46:34;4.93;;;1.75;;
51332;SDS011;37417;48.118;11.734;2023-05-20T01:49:20;2.10;;;1.90;;
51332;SDS011;37417;48.118;11.734;2023-05-20T01:52:06;1.45;;;1.17;;
51332;SDS011;37417;48.118;11.734;2023-05-20T01:54:51;1.75;;;1.65;;
51332;SDS011;37417;48.118;11.734;2023-05-20T01:57:37;2.22;;;1.85;;
51332;SDS011;37417;48.118;11.734;2023-05-20T02:00:23;2.20;;;2.00;;
51332;SDS011;37417;48.118;11.734;2023-05-20T02:03:08;2.33;;;2.13;;
51332;SDS011;37417;48.118;11.734;2023-05-20T02:05:55;2.10;;;1.90;;
51332;SDS011;37417;48.118;11.734;2023-05-20T02:08:41;1.65;;;1.52;;
51332;SDS011;37417;48.118;11.734;2023-05-20T02:11:26;2.17;;;1.98;;
51332;SDS011;37417;48.118;11.734;2023-05-20T02:14:12;1.70;;;1.50;;
51332;SDS011;37417;48.118;11.734;2023-05-20T02:16:57;2.35;;;1.90;;
51332;SDS011;37417;48.118;11.734;2023-05-20T02:19:43;3.35;;;2.25;;
51332;SDS011;37417;48.118;11.734;2023-05-20T02:22:30;2.33;;;2.10;;
51332;SDS011;37417;48.118;11.734;2023-05-20T02:25:15;2.10;;;1.90;;
51332;SDS011;37417;48.118;11.734;2023-05-20T02:28:01;2.33;;;2.15;;
51332;SDS011;37417;48.118;11.734;2023-05-20T02:30:50;5.68;;;2.40;;
51332;SDS011;37417;48.118;11.734;2023-05-20T02:33:35;1.92;;;1.67;;
51332;SDS011;37417;48.118;11.734;2023-05-20T02:36:21;2.25;;;1.98;;
51332;SDS011;37417;48.118;11.734;2023-05-20T02:39:07;2.70;;;1.92;;
51332;SDS011;37417;48.118;11.734;2023-05-20T02:41:53;2.67;;;2.25;;
51332;SDS011;37417;48.118;11.734;2023-05-20T02:44:38;2.72;;;1.90;;
51332;SDS011;37417;48.118;11.734;2023-05-20T02:47:24;2.85;;;2.42;;
51332;SDS011;37417;48.118;11.734;2023-05-20T02:50:10;4.10;;;3.00;;
51332;SDS011;37417;48.118;11.734;2023-05-20T02:52:56;2.35;;;1.60;;
51332;SDS011;37417;48.118;11.734;2023-05-20T02:55:41;3.22;;;2.83;;
51332;SDS011;37417;48.118;11.734;2023-05-20T02:58:29;2.75;;;2.50;;
51332;SDS011;37417;48.118;11.734;2023-05-20T03:01:15;4.50;;;2.25;;
51332;SDS011;37417;48.118;11.734;2023-05-20T03:04:03;3.17;;;2.13;;
51332;SDS011;37417;48.118;11.734;2023-05-20T03:06:49;2.83;;;2.58;;
51332;SDS011;37417;48.118;11.734;2023-05-20T03:09:36;3.13;;;2.47;;
51332;SDS011;37417;48.118;11.734;2023-05-20T03:12:21;6.22;;;3.67;;
51332;SDS011;37417;48.118;11.734;2023-05-20T03:15:10;2.42;;;2.03;;
51332;SDS011;37417;48.118;11.734;2023-05-20T03:17:56;2.63;;;2.05;;
51332;SDS011;37417;48.118;11.734;2023-05-20T03:20:42;3.35;;;2.25;;
51332;SDS011;37417;48.118;11.734;2023-05-20T03:23:28;2.40;;;2.20;;
51332;SDS011;37417;48.118;11.734;2023-05-20T03:26:13;3.38;;;2.15;;
51332;SDS011;37417;48.118;11.734;2023-05-20T03:28:59;3.47;;;1.85;;
51332;SDS011;37417;48.118;11.734;2023-05-20T03:31:45;2.22;;;2.03;;
51332;SDS011;37417;48.118;11.734;2023-05-20T03:34:30;3.25;;;2.40;;
51332;SDS011;37417;48.118;11.734;2023-05-20T03:37:16;3.13;;;2.45;;
51332;SDS011;37417;48.118;11.734;2023-05-20T03:40:02;3.50;;;2.70;;
51332;SDS011;37417;48.118;11.734;2023-05-20T03:42:50;4.20;;;2.70;;
51332;SDS011;37417;48.118;11.734;2023-05-20T03:45:36;3.22;;;2.45;;
51332;SDS011;37417;48.118;11.734;2023-05-20T03:48:22;2.35;;;2.10;;
51332;SDS011;37417;48.118;11.734;2023-05-20T03:51:07;5.85;;;3.17;;
51332;SDS011;37417;48.118;11.734;2023-05-20T03:53:53;3.38;;;2.88;;
51332;SDS011;37417;48.118;11.734;2023-05-20T03:56:39;3.55;;;2.75;;
51332;SDS011;37417;48.118;11.734;2023-05-20T03:59:24;4.22;;;2.70;;
51332;SDS011;37417;48.118;11.734;2023-05-20T04:02:11;3.00;;;2.55;;
51332;SDS011;37417;48.118;11.734;2023-05-20T04:04:57;3.80;;;2.33;;
51332;SDS011;37417;48.118;11.734;2023-05-20T04:07:43;4.57;;;2.40;;
51332;SDS011;37417;48.118;11.734;2023-05-20T04:10:28;7.47;;;3.38;;
51332;SDS011;37417;48.118;11.734;2023-05-20T04:13:16;3.78;;;2.70;;
51332;SDS011;37417;48.118;11.734;2023-05-20T04:16:01;4.68;;;3.10;;
51332;SDS011;37417;48.118;11.734;2023-05-20T04:18:49;5.47;;;3.90;;
51332;SDS011;37417;48.118;11.734;2023-05-20T04:21:36;7.00;;;4.30;;
51332;SDS011;37417;48.118;11.734;2023-05-20T04:24:22;3.40;;;3.10;;
51332;SDS011;37417;48.118;11.734;2023-05-20T04:27:09;5.90;;;3.35;;
51332;SDS011;37417;48.118;11.734;2023-05-20T04:29:55;4.03;;;3.53;;
51332;SDS011;37417;48.118;11.734;2023-05-20T04:32:43;3.85;;;3.42;;
51332;SDS011;37417;48.118;11.734;2023-05-20T04:35:28;4.88;;;3.75;;
51332;SDS011;37417;48.118;11.734;2023-05-20T04:38:14;7.70;;;4.25;;
51332;SDS011;37417;48.118;11.734;2023-05-20T04:41:00;5.15;;;4.03;;
51332;SDS011;37417;48.118;11.734;2023-05-20T04:43:46;12.40;;;3.50;;
51332;SDS011;37417;48.118;11.734;2023-05-20T04:46:32;8.13;;;4.55;;
51332;SDS011;37417;48.118;11.734;2023-05-20T04:49:18;5.50;;;3.78;;
51332;SDS011;37417;48.118;11.734;2023-05-20T04:52:03;8.88;;;5.18;;
51332;SDS011;37417;48.118;11.734;2023-05-20T04:54:49;5.20;;;3.42;;
51332;SDS011;37417;48.118;11.734;2023-05-20T04:57:35;5.85;;;4.25;;
51332;SDS011;37417;48.118;11.734;2023-05-20T05:00:24;7.65;;;5.78;;
51332;SDS011;37417;48.118;11.734;2023-05-20T05:03:10;5.75;;;3.78;;
51332;SDS011;37417;48.118;11.734;2023-05-20T05:05:59;4.85;;;4.18;;
51332;SDS011;37417;48.118;11.734;2023-05-20T05:08:45;13.25;;;4.93;;
51332;SDS011;37417;48.118;11.734;2023-05-20T05:11:30;13.20;;;4.80;;
51332;SDS011;37417;48.118;11.734;2023-05-20T05:14:16;7.25;;;4.95;;
51332;SDS011;37417;48.118;11.734;2023-05-20T05:17:02;7.00;;;4.20;;
51332;SDS011;37417;48.118;11.734;2023-05-20T05:19:48;6.65;;;3.67;;
51332;SDS011;37417;48.118;11.734;2023-05-20T05:22:33;4.18;;;3.78;;
51332;SDS011;37417;48.118;11.734;2023-05-20T05:25:21;6.55;;;4.85;;
51332;SDS011;37417;48.118;11.734;2023-05-20T05:28:06;13.80;;;4.80;;
51332;SDS011;37417;48.118;11.734;2023-05-20T05:30:55;6.63;;;4.18;;
51332;SDS011;37417;48.118;11.734;2023-05-20T05:33:41;6.43;;;4.78;;
51332;SDS011;37417;48.118;11.734;2023-05-20T05:36:26;6.63;;;4.25;;
51332;SDS011;37417;48.118;11.734;2023-05-20T05:39:12;8.02;;;4.97;;
51332;SDS011;37417;48.118;11.734;2023-05-20T05:41:58;5.45;;;4.00;;
51332;SDS011;37417;48.118;11.734;2023-05-20T05:44:43;3.95;;;3.58;;
51332;SDS011;37417;48.118;11.734;2023-05-20T05:47:29;7.45;;;4.88;;
51332;SDS011;37417;48.118;11.734;2023-05-20T05:50:16;6.55;;;5.20;;
51332;SDS011;37417;48.118;11.734;2023-05-20T05:53:02;7.68;;;4.95;;
51332;SDS011;37417;48.118;11.734;2023-05-20T05:55:48;6.90;;;4.35;;
51332;SDS011;37417;48.118;11.734;2023-05-20T05:58:33;6.88;;;5.03;;
51332;SDS011;37417;48.118;11.734;2023-05-20T06:01:19;8.88;;;4.93;;
51332;SDS011;37417;48.118;11.734;2023-05-20T06:04:05;7.75;;;5.55;;
51332;SDS011;37417;48.118;11.734;2023-05-20T06:06:51;11.18;;;6.13;;
51332;SDS011;37417;48.118;11.734;2023-05-20T06:09:37;4.53;;;3.72;;
51332;SDS011;37417;48.118;11.734;2023-05-20T06:12:23;8.55;;;4.38;;
51332;SDS011;37417;48.118;11.734;2023-05-20T06:15:09;7.35;;;4.68;;
51332;SDS011;37417;48.118;11.734;2023-05-20T06:17:55;5.35;;;4.85;;
51332;SDS011;37417;48.118;11.734;2023-05-20T06:20:41;7.50;;;4.40;;
51332;SDS011;37417;48.118;11.734;2023-05-20T06:23:26;5.65;;;4.10;;
51332;SDS011;37417;48.118;11.734;2023-05-20T06:26:12;10.48;;;5.55;;
51332;SDS011;37417;48.118;11.734;2023-05-20T06:28:58;5.75;;;3.90;;
51332;SDS011;37417;48.118;11.734;2023-05-20T06:31:44;6.47;;;3.83;;
51332;SDS011;37417;48.118;11.734;2023-05-20T06:34:30;8.85;;;4.97;;
51332;SDS011;37417;48.118;11.734;2023-05-20T06:37:15;4.80;;;3.22;;
51332;SDS011;37417;48.118;11.734;2023-05-20T06:40:01;7.53;;;4.90;;
51332;SDS011;37417;48.118;11.734;2023-05-20T06:42:47;5.75;;;3.83;;
51332;SDS011;37417;48.118;11.734;2023-05-20T06:45:32;4.55;;;3.72;;
51332;SDS011;37417;48.118;11.734;2023-05-20T06:48:18;7.25;;;4.30;;
51332;SDS011;37417;48.118;11.734;2023-05-20T06:51:06;8.02;;;4.35;;
51332;SDS011;37417;48.118;11.734;2023-05-20T06:53:53;4.72;;;3.58;;
51332;SDS011;37417;48.118;11.734;2023-05-20T06:56:39;4.63;;;3.80;;
51332;SDS011;37417;48.118;11.734;2023-05-20T06:59:25;5.15;;;3.88;;
51332;SDS011;37417;48.118;11.734;2023-05-20T07:02:10;5.07;;;4.18;;
51332;SDS011;37417;48.118;11.734;2023-05-20T07:04:56;5.43;;;4.10;;
51332;SDS011;37417;48.118;11.734;2023-05-20T07:07:42;7.57;;;4.65;;
51332;SDS011;37417;48.118;11.734;2023-05-20T07:10:28;5.45;;;3.47;;
51332;SDS011;37417;48.118;11.734;2023-05-20T07:13:14;6.22;;;3.70;;
51332;SDS011;37417;48.118;11.734;2023-05-20T07:15:59;5.43;;;3.78;;
51332;SDS011;37417;48.118;11.734;2023-05-20T07:18:45;3.50;;;3.20;;
51332;SDS011;37417;48.118;11.734;2023-05-20T07:21:31;4.88;;;3.17;;
51332;SDS011;37417;48.118;11.734;2023-05-20T07:24:16;7.57;;;3.95;;
51332;SDS011;37417;48.118;11.734;2023-05-20T07:27:02;5.18;;;3.83;;
51332;SDS011;37417;48.118;11.734;2023-05-20T07:29:48;5.85;;;4.43;;
51332;SDS011;37417;48.118;11.734;2023-05-20T07:32:33;6.68;;;3.63;;
51332;SDS011;37417;48.118;11.734;2023-05-20T07:35:19;4.43;;;3.38;;
51332;SDS011;37417;48.118;11.734;2023-05-20T07:38:05;4.63;;;3.58;;
51332;SDS011;37417;48.118;11.734;2023-05-20T07:40:51;4.05;;;3.60;;
51332;SDS011;37417;48.118;11.734;2023-05-20T07:43:36;5.50;;;3.78;;
51332;SDS011;37417;48.118;11.734;2023-05-20T07:46:22;6.07;;;3.85;;
51332;SDS011;37417;48.118;11.734;2023-05-20T07:49:08;4.30;;;2.70;;
51332;SDS011;37417;48.118;11.734;2023-05-20T07:51:53;4.15;;;2.70;;
51332;SDS011;37417;48.118;11.734;2023-05-20T07:54:39;5.57;;;3.30;;
51332;SDS011;37417;48.118;11.734;2023-05-20T07:57:25;4.53;;;3.20;;
51332;SDS011;37417;48.118;11.734;2023-05-20T08:00:11;3.40;;;3.08;;
51332;SDS011;37417;48.118;11.734;2023-05-20T08:02:57;4.40;;;2.72;;
51332;SDS011;37417;48.118;11.734;2023-05-20T08:05:43;3.55;;;2.45;;
51332;SDS011;37417;48.118;11.734;2023-05-20T08:08:29;2.72;;;2.47;;
51332;SDS011;37417;48.118;11.734;2023-05-20T08:11:15;2.63;;;1.73;;
51332;SDS011;37417;48.118;11.734;2023-05-20T08:14:00;4.07;;;2.60;;
51332;SDS011;37417;48.118;11.734;2023-05-20T08:16:46;3.28;;;1.92;;
51332;SDS011;37417;48.118;11.734;2023-05-20T08:19:32;1.70;;;1.55;;
51332;SDS011;37417;48.118;11.734;2023-05-20T08:22:18;1.73;;;1.63;;
51332;SDS011;37417;48.118;11.734;2023-05-20T08:25:06;2.28;;;2.08;;
51332;SDS011;37417;48.118;11.734;2023-05-20T08:27:53;1.77;;;1.58;;
51332;SDS011;37417;48.118;11.734;2023-05-20T08:30:38;2.33;;;1.83;;
51332;SDS011;37417;48.118;11.734;2023-05-20T08:33:25;2.08;;;1.80;;
51332;SDS011;37417;48.118;11.734;2023-05-20T08:36:12;3.75;;;2.05;;
51332;SDS011;37417;48.118;11.734;2023-05-20T08:38:58;1.40;;;1.30;;
51332;SDS011;37417;48.118;11.734;2023-05-20T08:41:44;2.13;;;1.50;;
51332;SDS011;37417;48.118;11.734;2023-05-20T08:44:31;1.60;;;1.40;;
51332;SDS011;37417;48.118;11.734;2023-05-20T08:47:18;2.38;;;2.05;;
51332;SDS011;37417;48.118;11.734;2023-05-20T08:50:06;1.50;;;1.40;;
51332;SDS011;37417;48.118;11.734;2023-05-20T08:52:52;4.07;;;1.60;;
51332;SDS011;37417;48.118;11.734;2023-05-20T08:58:28;1.92;;;1.23;;
51332;SDS011;37417;48.118;11.734;2023-05-20T09:01:14;3.30;;;1.38;;
51332;SDS011;37417;48.118;11.734;2023-05-20T09:03:59;1.60;;;1.23;;
51332;SDS011;37417;48.118;11.734;2023-05-20T09:06:45;1.52;;;1.35;;
51332;SDS011;37417;48.118;11.734;2023-05-20T09:09:32;1.10;;;1.00;;
51332;SDS011;37417;48.118;11.734;2023-05-20T09:12:19;1.52;;;1.30;;
51332;SDS011;37417;48.118;11.734;2023-05-20T09:15:06;2.47;;;1.38;;
51332;SDS011;37417;48.118;11.734;2023-05-20T09:17:52;1.35;;;1.17;;
51332;SDS011;37417;48.118;11.734;2023-05-20T09:20:38;1.05;;;1.05;;
51332;SDS011;37417;48.118;11.734;2023-05-20T09:23:25;1.00;;;0.80;;
51332;SDS011;37417;48.118;11.734;2023-05-20T09:26:16;2.30;;;1.27;;
51332;SDS011;37417;48.118;11.734;2023-05-20T09:29:02;1.02;;;1.00;;
51332;SDS011;37417;48.118;11.734;2023-05-20T09:31:48;1.30;;;1.20;;
51332;SDS011;37417;48.118;11.734;2023-05-20T09:34:34;1.35;;;1.00;;
51332;SDS011;37417;48.118;11.734;2023-05-20T09:37:20;1.13;;;1.05;;
51332;SDS011;37417;48.118;11.734;2023-05-20T09:40:07;1.30;;;0.98;;
51332;SDS011;37417;48.118;11.734;2023-05-20T09:42:56;0.88;;;0.82;;
51332;SDS011;37417;48.118;11.734;2023-05-20T09:45:46;0.82;;;0.77;;
51332;SDS011;37417;48.118;11.734;2023-05-20T09:48:35;0.95;;;0.82;;
51332;SDS011;37417;48.118;11.734;2023-05-20T09:51:22;6.05;;;1.40;;
51332;SDS011;37417;48.118;11.734;2023-05-20T09:54:08;1.17;;;0.93;;
51332;SDS011;37417;48.118;11.734;2023-05-20T09:56:57;1.50;;;0.85;;
51332;SDS011;37417;48.118;11.734;2023-05-20T09:59:44;0.90;;;0.80;;
51332;SDS011;37417;48.118;11.734;2023-05-20T10:02:32;1.23;;;0.93;;
51332;SDS011;37417;48.118;11.734;2023-05-20T10:05:25;1.27;;;1.05;;
51332;SDS011;37417;48.118;11.734;2023-05-20T10:11:34;1.13;;;1.02;;
51332;SDS011;37417;48.118;11.734;2023-05-20T10:14:42;1.02;;;0.70;;
51332;SDS011;37417;48.118;11.734;2023-05-20T10:20:46;0.73;;;0.52;;
51332;SDS011;37417;48.118;11.734;2023-05-20T10:23:33;1.50;;;1.00;;
51332;SDS011;37417;48.118;11.734;2023-05-20T10:26:18;1.48;;;1.00;;
51332;SDS011;37417;48.118;11.734;2023-05-20T10:29:18;1.58;;;0.88;;
51332;SDS011;37417;48.118;11.734;2023-05-20T10:32:04;1.42;;;1.27;;
51332;SDS011;37417;48.118;11.734;2023-05-20T10:34:50;1.95;;;0.98;;
51332;SDS011;37417;48.118;11.734;2023-05-20T10:37:42;1.10;;;1.00;;
51332;SDS011;37417;48.118;11.734;2023-05-20T10:40:30;1.10;;;1.00;;
51332;SDS011;37417;48.118;11.734;2023-05-20T10:43:16;2.45;;;1.15;;
51332;SDS011;37417;48.118;11.734;2023-05-20T10:46:16;1.30;;;0.80;;
51332;SDS011;37417;48.118;11.734;2023-05-20T10:49:03;1.10;;;1.00;;
51332;SDS011;37417;48.118;11.734;2023-05-20T10:51:49;0.95;;;0.70;;
51332;SDS011;37417;48.118;11.734;2023-05-20T10:54:36;1.30;;;0.90;;
51332;SDS011;37417;48.118;11.734;2023-05-20T10:57:27;0.75;;;0.70;;
51332;SDS011;37417;48.118;11.734;2023-05-20T11:00:14;0.80;;;0.73;;
51332;SDS011;37417;48.118;11.734;2023-05-20T11:03:00;1.30;;;1.10;;
51332;SDS011;37417;48.118;11.734;2023-05-20T11:05:46;1.15;;;0.90;;
51332;SDS011;37417;48.118;11.734;2023-05-20T11:08:32;1.05;;;0.80;;
51332;SDS011;37417;48.118;11.734;2023-05-20T11:11:18;1.65;;;1.00;;
51332;SDS011;37417;48.118;11.734;2023-05-20T11:14:03;1.05;;;0.90;;
51332;SDS011;37417;48.118;11.734;2023-05-20T11:16:52;1.23;;;0.80;;
51332;SDS011;37417;48.118;11.734;2023-05-20T11:19:40;1.42;;;0.65;;
51332;SDS011;37417;48.118;11.734;2023-05-20T11:22:26;1.95;;;0.93;;
51332;SDS011;37417;48.118;11.734;2023-05-20T11:25:12;0.77;;;0.57;;
51332;SDS011;37417;48.118;11.734;2023-05-20T11:27:58;0.85;;;0.52;;
51332;SDS011;37417;48.118;11.734;2023-05-20T11:30:44;1.08;;;0.90;;
51332;SDS011;37417;48.118;11.734;2023-05-20T11:33:30;0.98;;;0.73;;
51332;SDS011;37417;48.118;11.734;2023-05-20T11:36:15;2.60;;;0.80;;
51332;SDS011;37417;48.118;11.734;2023-05-20T11:39:01;1.00;;;0.70;;
51332;SDS011;37417;48.118;11.734;2023-05-20T11:41:49;1.80;;;0.75;;
51332;SDS011;37417;48.118;11.734;2023-05-20T11:44:35;1.15;;;0.70;;
51332;SDS011;37417;48.118;11.734;2023-05-20T11:47:23;0.82;;;0.73;;
51332;SDS011;37417;48.118;11.734;2023-05-20T11:50:18;1.30;;;0.70;;
51332;SDS011;37417;48.118;11.734;2023-05-20T11:53:06;1.52;;;1.00;;
51332;SDS011;37417;48.118;11.734;2023-05-20T11:55:56;0.95;;;0.82;;
51332;SDS011;37417;48.118;11.734;2023-05-20T11:58:43;0.90;;;0.90;;
51332;SDS011;37417;48.118;11.734;2023-05-20T12:01:30;1.15;;;1.00;;
51332;SDS011;37417;48.118;11.734;2023-05-20T12:04:27;2.45;;;0.90;;
51332;SDS011;37417;48.118;11.734;2023-05-20T12:07:13;1.27;;;0.90;;
51332;SDS011;37417;48.118;11.734;2023-05-20T12:10:00;0.73;;;0.70;;
51332;SDS011;37417;48.118;11.734;2023-05-20T12:12:45;0.80;;;0.73;;
51332;SDS011;37417;48.118;11.734;2023-05-20T12:15:31;0.88;;;0.63;;
51332;SDS011;37417;48.118;11.734;2023-05-20T12:18:17;2.97;;;1.38;;
51332;SDS011;37417;48.118;11.734;2023-05-20T12:21:02;0.85;;;0.85;;
51332;SDS011;37417;48.118;11.734;2023-05-20T12:23:48;1.48;;;1.10;;
51332;SDS011;37417;48.118;11.734;2023-05-20T12:26:34;2.25;;;1.10;;
51332;SDS011;37417;48.118;11.734;2023-05-20T12:29:19;1.58;;;1.05;;
51332;SDS011;37417;48.118;11.734;2023-05-20T12:32:05;1.25;;;1.13;;
51332;SDS011;37417;48.118;11.734;2023-05-20T12:34:51;2.35;;;1.67;;
51332;SDS011;37417;48.118;11.734;2023-05-20T12:37:37;1.75;;;1.23;;
51332;SDS011;37417;48.118;11.734;2023-05-20T12:40:25;1.33;;;1.23;;
51332;SDS011;37417;48.118;11.734;2023-05-20T12:43:11;2.28;;;1.55;;
51332;SDS011;37417;48.118;11.734;2023-05-20T12:45:56;1.70;;;1.25;;
51332;SDS011;37417;48.118;11.734;2023-05-20T12:48:42;1.80;;;1.38;;
51332;SDS011;37417;48.118;11.734;2023-05-20T12:51:28;4.55;;;1.98;;
51332;SDS011;37417;48.118;11.734;2023-05-20T12:54:14;3.78;;;1.85;;
51332;SDS011;37417;48.118;11.734;2023-05-20T12:57:01;3.00;;;2.03;;
51332;SDS011;37417;48.118;11.734;2023-05-20T12:59:48;2.67;;;1.88;;
51332;SDS011;37417;48.118;11.734;2023-05-20T13:02:35;1.73;;;1.35;;
51332;SDS011;37417;48.118;11.734;2023-05-20T13:05:21;2.47;;;1.58;;
51332;SDS011;37417;48.118;11.734;2023-05-20T13:08:07;2.35;;;1.77;;
51332;SDS011;37417;48.118;11.734;2023-05-20T13:10:54;2.40;;;2.20;;
51332;SDS011;37417;48.118;11.734;2023-05-20T13:13:40;1.80;;;1.60;;
51332;SDS011;37417;48.118;11.734;2023-05-20T13:16:25;2.28;;;1.80;;
51332;SDS011;37417;48.118;11.734;2023-05-20T13:19:11;1.95;;;1.60;;
51332;SDS011;37417;48.118;11.734;2023-05-20T13:21:57;2.33;;;1.67;;
51332;SDS011;37417;48.118;11.734;2023-05-20T13:24:43;2.45;;;1.92;;
51332;SDS011;37417;48.118;11.734;2023-05-20T13:27:28;1.85;;;1.75;;
51332;SDS011;37417;48.118;11.734;2023-05-20T13:30:15;2.55;;;2.05;;
51332;SDS011;37417;48.118;11.734;2023-05-20T13:33:00;3.60;;;2.42;;
51332;SDS011;37417;48.118;11.734;2023-05-20T13:35:46;3.88;;;2.72;;
51332;SDS011;37417;48.118;11.734;2023-05-20T13:38:32;2.92;;;2.15;;
51332;SDS011;37417;48.118;11.734;2023-05-20T13:41:17;5.15;;;2.47;;
51332;SDS011;37417;48.118;11.734;2023-05-20T13:44:03;1.67;;;1.58;;
51332;SDS011;37417;48.118;11.734;2023-05-20T13:46:49;4.57;;;2.38;;
51332;SDS011;37417;48.118;11.734;2023-05-20T13:49:34;3.05;;;1.85;;
51332;SDS011;37417;48.118;11.734;2023-05-20T13:52:20;2.10;;;1.30;;
51332;SDS011;37417;48.118;11.734;2023-05-20T13:55:06;2.55;;;1.70;;
51332;SDS011;37417;48.118;11.734;2023-05-20T13:57:52;2.83;;;1.77;;
51332;SDS011;37417;48.118;11.734;2023-05-20T14:00:38;2.95;;;2.17;;
51332;SDS011;37417;48.118;11.734;2023-05-20T14:03:24;2.78;;;2.22;;
51332;SDS011;37417;48.118;11.734;2023-05-20T14:06:09;3.63;;;2.22;;
51332;SDS011;37417;48.118;11.734;2023-05-20T14:08:56;2.53;;;1.98;;
51332;SDS011;37417;48.118;11.734;2023-05-20T14:11:42;3.70;;;2.47;;
51332;SDS011;37417;48.118;11.734;2023-05-20T14:14:27;2.47;;;2.28;;
51332;SDS011;37417;48.118;11.734;2023-05-20T14:17:13;2.78;;;2.13;;
51332;SDS011;37417;48.118;11.734;2023-05-20T14:19:59;5.35;;;3.40;;
51332;SDS011;37417;48.118;11.734;2023-05-20T14:22:44;4.40;;;3.55;;
51332;SDS011;37417;48.118;11.734;2023-05-20T14:25:30;2.45;;;2.25;;
51332;SDS011;37417;48.118;11.734;2023-05-20T14:28:16;3.65;;;2.88;;
51332;SDS011;37417;48.118;11.734;2023-05-20T14:31:02;3.60;;;3.13;;
51332;SDS011;37417;48.118;11.734;2023-05-20T14:33:48;2.85;;;2.40;;
51332;SDS011;37417;48.118;11.734;2023-05-20T14:36:34;5.47;;;4.00;;
51332;SDS011;37417;48.118;11.734;2023-05-20T14:39:20;1.58;;;1.48;;
51332;SDS011;37417;48.118;11.734;2023-05-20T14:42:05;3.88;;;2.22;;
51332;SDS011;37417;48.118;11.734;2023-05-20T14:44:51;4.50;;;3.22;;
51332;SDS011;37417;48.118;11.734;2023-05-20T14:47:36;2.95;;;2.30;;
51332;SDS011;37417;48.118;11.734;2023-05-20T14:50:24;4.22;;;2.53;;
51332;SDS011;37417;48.118;11.734;2023-05-20T14:53:10;2.42;;;1.90;;
51332;SDS011;37417;48.118;11.734;2023-05-20T14:55:55;2.35;;;2.05;;
51332;SDS011;37417;48.118;11.734;2023-05-20T14:58:41;5.70;;;3.42;;
51332;SDS011;37417;48.118;11.734;2023-05-20T15:01:26;4.97;;;4.28;;
51332;SDS011;37417;48.118;11.734;2023-05-20T15:04:12;3.80;;;3.13;;
51332;SDS011;37417;48.118;11.734;2023-05-20T15:06:58;4.07;;;3.58;;
51332;SDS011;37417;48.118;11.734;2023-05-20T15:09:44;2.20;;;2.00;;
51332;SDS011;37417;48.118;11.734;2023-05-20T15:12:30;2.83;;;2.42;;
51332;SDS011;37417;48.118;11.734;2023-05-20T15:15:15;4.28;;;2.28;;
51332;SDS011;37417;48.118;11.734;2023-05-20T15:18:01;3.90;;;2.38;;
51332;SDS011;37417;48.118;11.734;2023-05-20T15:20:47;3.58;;;3.10;;
51332;SDS011;37417;48.118;11.734;2023-05-20T15:23:32;3.38;;;2.45;;
51332;SDS011;37417;48.118;11.734;2023-05-20T15:26:18;5.35;;;4.03;;
51332;SDS011;37417;48.118;11.734;2023-05-20T15:29:03;3.15;;;2.20;;
51332;SDS011;37417;48.118;11.734;2023-05-20T15:31:49;3.17;;;2.30;;
51332;SDS011;37417;48.118;11.734;2023-05-20T15:34:35;2.92;;;2.40;;
51332;SDS011;37417;48.118;11.734;2023-05-20T15:37:21;2.03;;;1.60;;
51332;SDS011;37417;48.118;11.734;2023-05-20T15:40:07;2.22;;;1.77;;
51332;SDS011;37417;48.118;11.734;2023-05-20T15:42:53;4.47;;;2.13;;
51332;SDS011;37417;48.118;11.734;2023-05-20T15:45:39;2.47;;;2.28;;
51332;SDS011;37417;48.118;11.734;2023-05-20T15:48:24;3.22;;;2.67;;
51332;SDS011;37417;48.118;11.734;2023-05-20T15:51:10;4.63;;;3.47;;
51332;SDS011;37417;48.118;11.734;2023-05-20T15:53:56;3.42;;;2.47;;
51332;SDS011;37417;48.118;11.734;2023-05-20T15:56:42;4.47;;;3.10;;
51332;SDS011;37417;48.118;11.734;2023-05-20T15:59:27;4.40;;;2.92;;
51332;SDS011;37417;48.118;11.734;2023-05-20T16:02:13;4.47;;;3.65;;
51332;SDS011;37417;48.118;11.734;2023-05-20T16:04:59;3.78;;;2.05;;
51332;SDS011;37417;48.118;11.734;2023-05-20T16:07:44;2.47;;;2.15;;
51332;SDS011;37417;48.118;11.734;2023-05-20T16:10:30;2.30;;;2.05;;
51332;SDS011;37417;48.118;11.734;2023-05-20T16:13:18;5.05;;;2.45;;
51332;SDS011;37417;48.118;11.734;2023-05-20T16:16:04;4.15;;;2.67;;
51332;SDS011;37417;48.118;11.734;2023-05-20T16:18:50;2.78;;;2.38;;
51332;SDS011;37417;48.118;11.734;2023-05-20T16:21:37;3.08;;;2.78;;
51332;SDS011;37417;48.118;11.734;2023-05-20T16:24:22;3.97;;;2.30;;
51332;SDS011;37417;48.118;11.734;2023-05-20T16:27:09;2.90;;;1.73;;
51332;SDS011;37417;48.118;11.734;2023-05-20T16:29:55;2.75;;;2.47;;
51332;SDS011;37417;48.118;11.734;2023-05-20T16:32:40;2.70;;;1.80;;
51332;SDS011;37417;48.118;11.734;2023-05-20T16:35:26;2.38;;;1.88;;